Mukdahan, Thailand

7:19 AM ICT on September 28, 2016 (GMT +0700)
Nakhon Phanom | | Change Station

Elev 584 ft 17.38 °N, 104.64 °E | Updated 19 minutes ago

Mostly Cloudy
Mostly Cloudy
82 °F
Feels Like 92 °F
N
0
Wind Variable Wind from North

Today
High -- | Low -- °F
--% Chance of Precip.
Yesterday
High -- | Low -- °F
Precip. -- in
Pressure 29.74 in
Visibility 6.2 miles
Clouds Scattered Clouds 2900 ft
Mostly Cloudy 3800 ft
Heat Index 92 °F
Dew Point 79 °F
Humidity 89%
Rainfall 0.00 in
Snow Depth Not available.
5:50 AM 5:52 PM
Waning Crescent, 9% visible
METAR VTUW 280000Z AUTO 00000KT 9999 SCT029/// BKN038/// 28/26 Q1007 A2976
Pressure 29.74 in
Visibility 6.2 miles
Clouds Scattered Clouds 2900 ft
Mostly Cloudy 3800 ft
Heat Index 92 °F
Dew Point 79 °F
Humidity 89%
Rainfall 0.00 in
Snow Depth Not available.
5:50 AM 5:52 PM
Waning Crescent, 9% visible
METAR VTUW 280000Z AUTO 00000KT 9999 SCT029/// BKN038/// 28/26 Q1007 A2976

10-Day Weather Forecast

No radar image for this location.
×

Almanac

Astronomy

Sep. 28, 2016 Rise Set
Actual Time
Civil Twilight
Nautical Twilight
Astronomical Twilight
Moon
Length of Visible Light
Length of Day
Tomorrow will be .
, % of the Moon is Illuminated

Today's Extremes

Country Highs Country Lows

Community

WunderPhotos

Upload Photos

1,942,179 photos uploaded!

WunderBlog® & News

Nearby

Air Quality

  Air Quality AQ Index Pollutant
Not available.

Snow Depth

Station Depth Elevation

Earthquake Activity

City Distance Mag. Time & Date
Minimum magnitude displayed is 2.5.

Coastal Water Temperatures

Place Temperature

Stations

Nearby Weather Stations

Station Location Temp. Windchill Dew Point Humidity Wind Precip. Elev Updated Type